createdAt,value
2018-09-01T00:01:42.285Z,1.70
2018-09-01T00:04:10.054Z,1.40
2018-09-01T00:06:37.749Z,2.25
2018-09-01T00:09:05.957Z,1.90
2018-09-01T00:11:33.655Z,1.60
2018-09-01T00:14:01.382Z,1.50
2018-09-01T00:16:29.090Z,1.47
2018-09-01T00:18:56.732Z,2.23
2018-09-01T00:21:24.675Z,1.90
2018-09-01T00:23:53.118Z,2.07
2018-09-01T00:26:20.877Z,1.40
2018-09-01T00:28:48.717Z,1.70
2018-09-01T00:31:16.356Z,1.83
2018-09-01T00:33:44.144Z,2.13
2018-09-01T00:36:11.861Z,2.03
2018-09-01T00:38:45.234Z,1.55
2018-09-01T00:41:12.993Z,1.60
2018-09-01T00:43:40.756Z,1.90
2018-09-01T00:46:08.418Z,1.92
2018-09-01T00:48:36.032Z,1.97
2018-09-01T00:51:03.854Z,2.17
2018-09-01T00:53:31.547Z,1.90
2018-09-01T00:55:59.193Z,2.33
2018-09-01T00:58:26.840Z,1.40
2018-09-01T01:00:54.547Z,1.67
2018-09-01T01:03:22.274Z,1.73
2018-09-01T01:05:49.922Z,1.77
2018-09-01T01:08:17.733Z,2.25
2018-09-01T01:10:45.411Z,1.63
2018-09-01T01:13:13.017Z,1.85
2018-09-01T01:15:40.771Z,2.30
2018-09-01T01:18:08.363Z,1.87
2018-09-01T01:20:36.133Z,2.00
2018-09-01T01:23:03.836Z,1.87
2018-09-01T01:25:31.445Z,1.55
2018-09-01T01:27:59.115Z,2.13
2018-09-01T01:30:26.751Z,1.83
2018-09-01T01:32:54.414Z,1.63
2018-09-01T01:35:22.045Z,1.77
2018-09-01T01:37:49.772Z,2.30
2018-09-01T01:40:17.448Z,1.90
2018-09-01T01:42:45.159Z,1.55
2018-09-01T01:45:12.817Z,2.03
2018-09-01T01:47:41.308Z,1.70
2018-09-01T01:50:10.173Z,2.12
2018-09-01T01:52:37.815Z,3.17
2018-09-01T01:55:05.553Z,2.02
2018-09-01T01:57:37.797Z,2.47
2018-09-01T02:00:05.913Z,1.67
2018-09-01T02:02:33.571Z,1.60
2018-09-01T02:05:01.235Z,2.15
2018-09-01T02:07:28.976Z,2.05
2018-09-01T02:09:56.721Z,2.20
2018-09-01T02:12:24.491Z,2.47
2018-09-01T02:14:52.178Z,2.20
2018-09-01T02:17:19.858Z,2.17
2018-09-01T02:19:47.582Z,2.75
2018-09-01T02:22:15.325Z,2.20
2018-09-01T02:24:43.179Z,2.17
2018-09-01T02:27:10.836Z,2.10
2018-09-01T02:29:38.436Z,1.67
2018-09-01T02:32:06.192Z,1.85
2018-09-01T02:34:33.860Z,2.17
2018-09-01T02:37:01.543Z,2.75
2018-09-01T02:39:29.233Z,2.77
2018-09-01T02:41:57.130Z,2.70
2018-09-01T02:44:24.726Z,1.70
2018-09-01T02:46:52.366Z,2.10
2018-09-01T02:49:20.026Z,1.75
2018-09-01T02:51:47.629Z,2.40
2018-09-01T02:54:15.211Z,2.27
2018-09-01T02:56:42.901Z,2.63
2018-09-01T02:59:10.772Z,2.17
2018-09-01T03:01:38.495Z,2.00
2018-09-01T03:04:07.109Z,2.27
2018-09-01T03:06:49.173Z,2.57
2018-09-01T03:09:16.809Z,2.50
2018-09-01T03:11:44.438Z,2.45
2018-09-01T03:14:12.101Z,2.40
2018-09-01T03:16:39.837Z,2.17
2018-09-01T03:19:08.109Z,2.50
2018-09-01T03:21:36.025Z,1.80
2018-09-01T03:24:03.781Z,1.97
2018-09-01T03:26:31.561Z,1.90
2018-09-01T03:28:59.239Z,2.37
2018-09-01T03:31:26.899Z,2.17
2018-09-01T03:33:54.837Z,2.00
2018-09-01T03:36:22.501Z,1.60
2018-09-01T03:38:50.176Z,2.17
2018-09-01T03:41:17.851Z,2.10
2018-09-01T03:43:45.585Z,2.30
2018-09-01T03:46:13.289Z,2.27
2018-09-01T03:48:41.231Z,2.02
2018-09-01T03:51:08.868Z,2.13
2018-09-01T03:56:15.682Z,2.43
2018-09-01T03:58:43.352Z,2.17
2018-09-01T04:01:10.999Z,2.77
2018-09-01T04:03:38.606Z,2.42
2018-09-01T04:06:06.215Z,1.93
2018-09-01T04:08:33.829Z,2.17
2018-09-01T04:11:01.466Z,2.47
2018-09-01T04:13:29.104Z,1.70
2018-09-01T04:15:56.718Z,2.33
2018-09-01T04:18:24.376Z,1.70
2018-09-01T04:20:52.150Z,2.03
2018-09-01T04:23:19.791Z,2.00
2018-09-01T04:25:47.491Z,1.97
2018-09-01T04:28:15.098Z,1.60
2018-09-01T04:30:42.778Z,1.60
2018-09-01T04:33:10.428Z,2.20
2018-09-01T04:35:38.201Z,2.47
2018-09-01T04:38:05.907Z,2.40
2018-09-01T04:40:33.541Z,1.70
2018-09-01T04:43:01.183Z,2.17
2018-09-01T04:45:28.825Z,2.27
2018-09-01T04:47:56.460Z,2.37
2018-09-01T04:50:24.211Z,1.80
2018-09-01T04:52:51.910Z,1.60
2018-09-01T04:55:19.591Z,1.77
2018-09-01T04:57:47.341Z,1.87
2018-09-01T05:00:22.220Z,1.93
2018-09-01T05:02:51.196Z,1.60
2018-09-01T05:05:18.918Z,1.87
2018-09-01T05:07:46.904Z,1.60
2018-09-01T05:10:14.694Z,2.37
2018-09-01T05:12:42.324Z,2.10
2018-09-01T05:15:10.115Z,2.40
2018-09-01T05:17:37.860Z,2.25
2018-09-01T05:20:05.884Z,2.85
2018-09-01T05:22:33.620Z,2.42
2018-09-01T05:25:01.351Z,2.95
2018-09-01T05:27:29.138Z,1.67
2018-09-01T05:29:56.848Z,3.10
2018-09-01T05:32:24.686Z,2.37
2018-09-01T05:34:52.301Z,3.00
2018-09-01T05:37:19.947Z,2.60
2018-09-01T05:39:47.618Z,1.87
2018-09-01T05:42:15.323Z,3.40
2018-09-01T05:44:42.998Z,2.33
2018-09-01T05:47:10.648Z,2.23
2018-09-01T05:49:38.277Z,2.20
2018-09-01T05:52:06.086Z,2.33
2018-09-01T05:54:33.863Z,2.80
2018-09-01T05:57:01.687Z,2.47
2018-09-01T05:59:29.401Z,2.70
2018-09-01T06:01:57.100Z,2.33
2018-09-01T06:04:24.815Z,2.40
2018-09-01T06:06:52.469Z,3.00
2018-09-01T06:09:20.115Z,3.30
2018-09-01T06:11:48.239Z,2.40
2018-09-01T06:14:15.813Z,2.80
2018-09-01T06:16:43.471Z,3.23
2018-09-01T06:19:11.167Z,2.30
2018-09-01T06:21:38.776Z,2.10
2018-09-01T06:24:06.902Z,1.70
2018-09-01T06:26:34.542Z,2.83
2018-09-01T06:29:06.883Z,2.43
2018-09-01T06:31:34.525Z,2.53
2018-09-01T06:34:02.162Z,2.42
2018-09-01T06:36:29.739Z,2.72
2018-09-01T06:38:57.383Z,2.77
2018-09-01T06:41:25.073Z,2.60
2018-09-01T06:43:52.669Z,1.83
2018-09-01T06:46:20.431Z,2.47
2018-09-01T06:48:48.092Z,2.58
2018-09-01T06:51:15.760Z,2.70
2018-09-01T06:53:43.451Z,2.70
2018-09-01T06:56:11.119Z,2.20
2018-09-01T06:58:38.770Z,2.22
2018-09-01T07:01:06.601Z,2.50
2018-09-01T07:03:34.204Z,2.80
2018-09-01T07:06:01.870Z,3.27
2018-09-01T07:08:29.473Z,2.55
2018-09-01T07:10:57.702Z,3.10
2018-09-01T07:13:25.403Z,2.15
2018-09-01T07:15:53.226Z,2.10
2018-09-01T07:18:20.892Z,2.10
2018-09-01T07:20:48.558Z,2.17
2018-09-01T07:23:16.219Z,3.03
2018-09-01T07:25:43.917Z,2.35
2018-09-01T07:28:11.598Z,2.67
2018-09-01T07:30:39.364Z,2.57
2018-09-01T07:33:07.042Z,2.37
2018-09-01T07:35:34.713Z,2.60
2018-09-01T07:38:02.410Z,2.60
2018-09-01T07:40:30.164Z,3.02
2018-09-01T07:42:57.805Z,2.80
2018-09-01T07:45:25.460Z,2.70
2018-09-01T07:47:53.191Z,2.62
2018-09-01T07:50:20.839Z,2.93
2018-09-01T07:52:48.518Z,2.80
2018-09-01T07:55:16.184Z,3.00
2018-09-01T07:57:43.847Z,3.30
2018-09-01T08:00:11.625Z,3.35
2018-09-01T08:02:39.293Z,2.22
2018-09-01T08:05:07.195Z,2.77
2018-09-01T08:07:35.017Z,2.97
2018-09-01T08:10:02.672Z,2.60
2018-09-01T08:12:30.456Z,2.57
2018-09-01T08:14:58.147Z,3.17
2018-09-01T08:17:26.003Z,2.87
2018-09-01T08:19:54.259Z,3.02
2018-09-01T08:22:21.958Z,2.00
2018-09-01T08:24:49.668Z,2.90
2018-09-01T08:27:17.509Z,2.72
2018-09-01T08:29:45.331Z,2.83
2018-09-01T08:32:12.983Z,3.05
2018-09-01T08:34:40.906Z,2.63
2018-09-01T08:37:08.548Z,3.27
2018-09-01T08:39:36.159Z,2.60
2018-09-01T08:42:03.812Z,3.10
2018-09-01T08:44:31.413Z,3.08
2018-09-01T08:46:58.992Z,3.23
2018-09-01T08:49:26.731Z,3.83
2018-09-01T08:51:54.560Z,2.97
2018-09-01T08:54:22.239Z,3.10
2018-09-01T08:56:50.005Z,2.47
2018-09-01T08:59:17.625Z,3.60
2018-09-01T09:01:45.273Z,2.37
2018-09-01T09:04:13.008Z,3.12
2018-09-01T09:06:40.669Z,3.22
2018-09-01T09:09:08.309Z,2.73
2018-09-01T09:11:36.062Z,2.93
2018-09-01T09:14:03.728Z,2.73
2018-09-01T09:16:31.369Z,2.73
2018-09-01T09:18:59.056Z,3.00
2018-09-01T09:21:26.744Z,3.20
2018-09-01T09:23:54.397Z,2.23
2018-09-01T09:26:22.060Z,2.80
2018-09-01T09:28:49.740Z,2.73
2018-09-01T09:31:17.424Z,3.20
2018-09-01T09:33:45.046Z,3.25
2018-09-01T09:36:12.668Z,2.53
2018-09-01T09:38:40.266Z,2.58
2018-09-01T09:41:07.950Z,3.22
2018-09-01T09:43:35.597Z,3.60
2018-09-01T09:46:03.284Z,2.30
2018-09-01T09:48:30.886Z,3.00
2018-09-01T09:50:58.529Z,2.58
2018-09-01T09:53:26.128Z,2.80
2018-09-01T09:55:53.747Z,2.90
2018-09-01T09:58:21.392Z,3.20
2018-09-01T10:00:54.854Z,3.05
2018-09-01T10:03:22.544Z,4.70
2018-09-01T10:05:50.179Z,2.87
2018-09-01T10:08:17.839Z,2.80
2018-09-01T10:10:45.506Z,2.70
2018-09-01T10:13:13.192Z,6.10
2018-09-01T10:15:40.867Z,3.53
2018-09-01T10:18:08.511Z,3.30
2018-09-01T10:20:36.182Z,2.90
2018-09-01T10:23:03.922Z,3.67
2018-09-01T10:25:31.622Z,3.20
2018-09-01T10:28:00.265Z,2.90
2018-09-01T10:30:28.030Z,3.10
2018-09-01T10:32:55.666Z,3.40
2018-09-01T10:35:23.302Z,3.30
2018-09-01T10:37:50.914Z,2.27
2018-09-01T10:40:18.778Z,1.90
2018-09-01T10:42:46.463Z,3.23
2018-09-01T10:45:14.074Z,2.80
2018-09-01T10:47:41.793Z,2.75
2018-09-01T10:50:09.470Z,2.70
2018-09-01T10:52:37.158Z,3.53
2018-09-01T10:55:05.011Z,2.98
2018-09-01T10:57:32.667Z,2.10
2018-09-01T11:00:00.319Z,3.57
2018-09-01T11:02:27.958Z,2.60
2018-09-01T11:04:55.591Z,5.33
2018-09-01T11:07:23.579Z,2.35
2018-09-01T11:09:51.213Z,2.97
2018-09-01T11:12:19.343Z,3.87
2018-09-01T11:14:46.989Z,4.93
2018-09-01T11:17:14.848Z,2.65
2018-09-01T11:19:42.609Z,2.95
2018-09-01T11:22:10.382Z,2.70
2018-09-01T11:24:38.063Z,2.67
2018-09-01T11:27:05.687Z,3.07
2018-09-01T11:29:33.389Z,3.33
2018-09-01T11:32:01.184Z,3.30
2018-09-01T11:34:28.810Z,4.30
2018-09-01T11:36:56.553Z,4.40
2018-09-01T11:39:24.159Z,3.10
2018-09-01T11:41:51.838Z,2.50
2018-09-01T11:44:19.435Z,3.10
2018-09-01T11:46:47.056Z,2.50
2018-09-01T11:49:14.789Z,3.47
2018-09-01T11:51:42.424Z,3.05
2018-09-01T11:54:10.071Z,4.22
2018-09-01T11:56:37.910Z,3.03
2018-09-01T11:59:06.061Z,3.57
2018-09-01T12:01:33.763Z,4.03
2018-09-01T12:04:01.462Z,3.10
2018-09-01T12:06:29.115Z,4.07
2018-09-01T12:08:56.909Z,3.70
2018-09-01T12:11:25.294Z,3.33
2018-09-01T12:13:53.024Z,3.57
2018-09-01T12:16:20.679Z,4.03
2018-09-01T12:18:48.392Z,4.30
2018-09-01T12:21:16.009Z,4.10
2018-09-01T12:23:43.633Z,4.62
2018-09-01T12:26:11.341Z,3.70
2018-09-01T12:28:38.948Z,5.20
2018-09-01T12:31:06.921Z,4.15
2018-09-01T12:33:34.645Z,4.60
2018-09-01T12:36:02.433Z,4.83
2018-09-01T12:38:30.080Z,4.77
2018-09-01T12:40:57.743Z,6.60
2018-09-01T12:43:25.463Z,4.20
2018-09-01T12:45:53.088Z,4.57
2018-09-01T12:48:20.719Z,3.77
2018-09-01T12:50:48.432Z,4.73
2018-09-01T12:53:16.639Z,3.83
2018-09-01T12:55:44.143Z,5.00
2018-09-01T12:58:11.781Z,4.53
2018-09-01T13:00:39.504Z,4.93
2018-09-01T13:03:07.211Z,5.17
2018-09-01T13:05:34.960Z,4.60
2018-09-01T13:08:02.933Z,4.43
2018-09-01T13:10:30.491Z,4.90
2018-09-01T13:12:58.244Z,5.70
2018-09-01T13:15:25.948Z,5.62
2018-09-01T13:17:53.598Z,5.10
2018-09-01T13:20:21.286Z,6.17
2018-09-01T13:22:48.933Z,5.23
2018-09-01T13:25:16.791Z,5.75
2018-09-01T13:27:44.353Z,5.90
2018-09-01T13:30:12.269Z,7.83
2018-09-01T13:32:40.062Z,5.60
2018-09-01T13:35:07.762Z,5.80
2018-09-01T13:37:35.423Z,5.80
2018-09-01T13:40:03.870Z,6.77
2018-09-01T13:42:31.461Z,5.60
2018-09-01T13:44:59.193Z,6.33
2018-09-01T13:47:26.818Z,5.73
2018-09-01T13:49:54.467Z,6.10
2018-09-01T13:52:22.167Z,5.65
2018-09-01T13:54:49.862Z,6.77
2018-09-01T13:57:17.603Z,6.50
2018-09-01T13:59:45.157Z,5.53
2018-09-01T14:02:12.776Z,6.00
2018-09-01T14:04:40.459Z,7.37
2018-09-01T14:07:08.127Z,6.87
2018-09-01T14:09:35.781Z,6.75
2018-09-01T14:12:03.406Z,8.30
2018-09-01T14:14:31.114Z,7.40
2018-09-01T14:16:58.769Z,7.47
2018-09-01T14:19:26.474Z,6.90
2018-09-01T14:21:54.084Z,8.08
2018-09-01T14:24:21.836Z,8.00
2018-09-01T14:26:49.566Z,7.47
2018-09-01T14:29:17.254Z,8.55
2018-09-01T14:31:44.964Z,7.72
2018-09-01T14:34:14.018Z,7.90
2018-09-01T14:36:41.678Z,8.30
2018-09-01T14:39:10.602Z,8.77
2018-09-01T14:41:38.270Z,8.20
2018-09-01T14:44:05.975Z,9.60
2018-09-01T14:46:33.997Z,9.28
2018-09-01T14:49:01.853Z,9.23
2018-09-01T14:51:29.496Z,9.83
2018-09-01T14:53:57.484Z,10.75
2018-09-01T14:56:25.258Z,11.55
2018-09-01T14:58:53.036Z,9.33
2018-09-01T15:01:20.709Z,11.10
2018-09-01T15:03:48.350Z,11.73
2018-09-01T15:06:16.006Z,13.03
2018-09-01T15:08:43.670Z,12.63
2018-09-01T15:11:11.314Z,10.40
2018-09-01T15:13:38.948Z,13.00
2018-09-01T15:16:07.343Z,11.43
2018-09-01T15:18:35.058Z,10.03
2018-09-01T15:21:02.737Z,10.50
2018-09-01T15:23:30.365Z,9.50
2018-09-01T15:25:58.103Z,8.57
2018-09-01T15:28:25.874Z,8.37
2018-09-01T15:30:53.625Z,10.35
2018-09-01T15:33:21.331Z,9.00
2018-09-01T15:35:49.053Z,11.20
2018-09-01T15:38:16.757Z,9.18
2018-09-01T15:40:44.374Z,9.13
2018-09-01T15:43:12.009Z,9.70
2018-09-01T15:45:39.607Z,10.23
2018-09-01T15:48:07.261Z,10.63
2018-09-01T15:50:34.951Z,10.83
2018-09-01T15:53:02.848Z,9.93
2018-09-01T15:55:30.479Z,10.63
2018-09-01T15:57:58.111Z,9.50
2018-09-01T16:00:25.721Z,9.38
2018-09-01T16:02:53.372Z,8.63
2018-09-01T16:05:21.180Z,9.53
2018-09-01T16:07:48.834Z,9.38
2018-09-01T16:10:16.580Z,9.95
2018-09-01T16:12:44.238Z,9.70
2018-09-01T16:15:12.015Z,10.60
2018-09-01T16:17:39.643Z,10.20
2018-09-01T16:20:07.321Z,9.75
2018-09-01T16:22:34.954Z,10.25
2018-09-01T16:25:02.746Z,10.33
2018-09-01T16:27:30.372Z,10.13
2018-09-01T16:29:57.981Z,10.47
2018-09-01T16:32:32.390Z,9.75
2018-09-01T16:35:00.075Z,10.77
2018-09-01T16:37:27.775Z,10.43
2018-09-01T16:39:55.482Z,9.93
2018-09-01T16:42:23.290Z,8.77
2018-09-01T16:44:51.126Z,10.43
2018-09-01T16:47:18.977Z,9.10
2018-09-01T16:49:46.616Z,9.00
2018-09-01T16:52:14.392Z,9.73
2018-09-01T16:54:42.171Z,11.13
2018-09-01T16:57:09.813Z,10.40
2018-09-01T16:59:37.446Z,11.88
2018-09-01T17:02:05.584Z,11.80
2018-09-01T17:04:33.303Z,10.38
2018-09-01T17:07:00.973Z,10.20
2018-09-01T17:09:28.734Z,10.30
2018-09-01T17:11:56.952Z,9.17
2018-09-01T17:14:24.675Z,11.40
2018-09-01T17:16:52.457Z,9.90
2018-09-01T17:19:20.101Z,10.07
2018-09-01T17:21:47.808Z,9.53
2018-09-01T17:24:15.545Z,11.90
2018-09-01T17:26:43.156Z,17.23
2018-09-01T17:29:10.893Z,11.18
2018-09-01T17:31:38.527Z,11.73
2018-09-01T17:34:06.293Z,11.17
2018-09-01T17:36:34.011Z,11.33
2018-09-01T17:39:01.726Z,11.30
2018-09-01T17:41:29.384Z,11.87
2018-09-01T17:43:57.027Z,10.18
2018-09-01T17:46:24.787Z,12.73
2018-09-01T17:48:52.502Z,13.80
2018-09-01T17:51:20.287Z,12.87
2018-09-01T17:53:48.029Z,15.87
2018-09-01T17:56:15.779Z,14.30
2018-09-01T17:58:43.730Z,15.30
2018-09-01T18:01:11.737Z,17.43
2018-09-01T18:03:39.390Z,16.23
2018-09-01T18:06:07.035Z,17.57
2018-09-01T18:08:34.775Z,15.35
2018-09-01T18:11:02.489Z,15.80
2018-09-01T18:13:30.167Z,15.10
2018-09-01T18:15:58.041Z,17.27
2018-09-01T18:18:25.911Z,17.93
2018-09-01T18:20:55.328Z,17.70
2018-09-01T18:23:24.466Z,17.10
2018-09-01T18:25:52.166Z,17.73
2018-09-01T18:28:19.948Z,17.45
2018-09-01T18:30:47.649Z,18.40
2018-09-01T18:33:15.550Z,18.05
2018-09-01T18:35:43.300Z,17.40
2018-09-01T18:38:11.021Z,19.50
2018-09-01T18:40:38.626Z,19.40
2018-09-01T18:43:06.238Z,18.00
2018-09-01T18:45:33.930Z,19.07
2018-09-01T18:48:01.582Z,21.55
2018-09-01T18:50:29.216Z,20.50
2018-09-01T18:52:56.917Z,20.83
2018-09-01T18:55:24.700Z,19.10
2018-09-01T18:57:52.979Z,20.30
2018-09-01T19:00:20.865Z,17.27
2018-09-01T19:02:48.510Z,15.27
2018-09-01T19:05:16.479Z,15.07
2018-09-01T19:07:44.129Z,16.53
2018-09-01T19:10:11.843Z,15.67
2018-09-01T19:12:39.564Z,14.43
2018-09-01T19:15:07.297Z,15.20
2018-09-01T19:17:35.029Z,15.77
2018-09-01T19:20:02.857Z,15.63
2018-09-01T19:22:30.637Z,15.18
2018-09-01T19:24:58.906Z,15.30
2018-09-01T19:27:26.665Z,13.70
2018-09-01T19:29:54.597Z,13.32
2018-09-01T19:32:23.416Z,12.43
2018-09-01T19:34:51.376Z,13.50
2018-09-01T19:37:19.143Z,13.93
2018-09-01T19:39:48.284Z,13.33
2018-09-01T19:42:16.113Z,16.50
2018-09-01T19:44:43.919Z,16.13
2018-09-01T19:47:11.567Z,18.03
2018-09-01T19:49:39.563Z,18.07
2018-09-01T19:52:07.205Z,18.98
2018-09-01T19:54:35.044Z,18.85
2018-09-01T19:57:02.988Z,16.85
2018-09-01T19:59:30.996Z,18.62
2018-09-01T20:01:58.629Z,16.17
2018-09-01T20:04:26.527Z,17.27
2018-09-01T20:06:54.274Z,18.10
2018-09-01T20:09:21.931Z,17.63
2018-09-01T20:11:49.607Z,18.60
2018-09-01T20:14:17.418Z,19.00
2018-09-01T20:16:45.206Z,18.53
2018-09-01T20:19:12.946Z,17.92
2018-09-01T20:21:40.629Z,19.12
2018-09-01T20:24:08.388Z,17.17
2018-09-01T20:26:36.094Z,17.27
2018-09-01T20:29:03.819Z,18.00
2018-09-01T20:34:26.618Z,18.00
2018-09-01T20:36:54.804Z,19.67
2018-09-01T20:39:22.533Z,18.57
2018-09-01T20:41:50.284Z,21.23
2018-09-01T20:44:18.065Z,18.80
2018-09-01T20:46:45.837Z,18.45
2018-09-01T20:49:13.490Z,21.17
2018-09-01T20:51:41.152Z,19.63
2018-09-01T20:54:08.816Z,22.60
2018-09-01T20:56:36.499Z,20.50
2018-09-01T20:59:04.240Z,19.42
2018-09-01T21:01:31.966Z,20.88
2018-09-01T21:03:59.930Z,21.30
2018-09-01T21:06:27.618Z,20.25
2018-09-01T21:08:55.611Z,21.03
2018-09-01T21:11:23.433Z,20.30
2018-09-01T21:13:51.131Z,23.00
2018-09-01T21:16:18.834Z,21.67
2018-09-01T21:18:46.471Z,23.97
2018-09-01T21:21:14.346Z,23.92
2018-09-01T21:23:42.063Z,27.10
2018-09-01T21:26:09.749Z,22.77
2018-09-01T21:28:37.473Z,22.82
2018-09-01T21:31:05.111Z,24.43
2018-09-01T21:33:33.154Z,23.30
2018-09-01T21:36:00.823Z,28.37
2018-09-01T21:38:28.544Z,24.90
2018-09-01T21:40:56.136Z,23.17
2018-09-01T21:43:23.795Z,26.77
2018-09-01T21:45:51.451Z,24.23
2018-09-01T21:48:19.235Z,25.30
2018-09-01T21:50:46.844Z,24.50
2018-09-01T21:53:14.479Z,24.10
2018-09-01T21:55:42.164Z,25.75
2018-09-01T21:58:09.753Z,26.30
2018-09-01T22:00:41.753Z,42.00
2018-09-01T22:03:09.383Z,33.07
2018-09-01T22:05:37.121Z,30.80
2018-09-01T22:08:04.771Z,26.60
2018-09-01T22:10:32.588Z,26.60
2018-09-01T22:13:00.229Z,27.70
2018-09-01T22:15:27.877Z,27.50
2018-09-01T22:17:55.482Z,29.73
2018-09-01T22:20:23.193Z,29.32
2018-09-01T22:22:50.804Z,24.67
2018-09-01T22:25:18.405Z,28.50
2018-09-01T22:27:46.066Z,28.63
2018-09-01T22:30:13.799Z,27.15
2018-09-01T22:32:41.428Z,25.50
2018-09-01T22:35:09.064Z,24.80
2018-09-01T22:37:36.764Z,27.27
2018-09-01T22:40:04.445Z,24.60
2018-09-01T22:42:32.104Z,23.30
2018-09-01T22:44:59.720Z,25.27
2018-09-01T22:47:29.032Z,23.80
2018-09-01T22:49:56.729Z,24.00
2018-09-01T22:52:24.421Z,23.70
2018-09-01T22:54:51.999Z,23.95
2018-09-01T22:57:20.101Z,23.10
2018-09-01T22:59:47.842Z,23.47
2018-09-01T23:02:15.712Z,21.80
2018-09-01T23:04:43.333Z,23.20
2018-09-01T23:07:11.019Z,23.43
2018-09-01T23:09:38.671Z,24.50
2018-09-01T23:12:06.454Z,23.30
2018-09-01T23:14:34.122Z,22.90
2018-09-01T23:17:01.742Z,22.58
2018-09-01T23:19:29.461Z,23.97
2018-09-01T23:21:57.127Z,24.60
2018-09-01T23:24:24.809Z,23.53
2018-09-01T23:26:52.519Z,25.92
2018-09-01T23:29:20.197Z,24.43
2018-09-01T23:31:47.935Z,22.53
2018-09-01T23:34:15.656Z,23.73
2018-09-01T23:36:43.275Z,23.57
2018-09-01T23:39:11.575Z,22.97
2018-09-01T23:41:39.663Z,23.85
2018-09-01T23:44:07.503Z,23.07
2018-09-01T23:46:35.373Z,24.30
2018-09-01T23:49:03.374Z,23.17
2018-09-01T23:51:31.002Z,24.00
2018-09-01T23:53:58.656Z,22.65
2018-09-01T23:56:26.390Z,24.53
2018-09-01T23:58:53.978Z,23.00
